VOZ168 NFTF-YSSY
Flight info
| Callsign | VOZ168 |
|---|---|
| Flight time | 5h 3m |
| Altitude | 30000 |
| Route | ANGOR1Q IBAKA B578 GURDI B451 DOLSI B450 LHI H258 RIKNI N774 MARLN |
| Aircraft | B738/M-SDE2E3FGHIRWXY/LB1 |
Departure
| Time | 2026-05-07 17:47 |
|---|---|
| Airport | Fua'amotu International Airport (NFTF) |
Arrival
| Time | 2026-05-07 22:51 |
|---|---|
| Airport | Sydney Kingsford Smith International Airport (YSSY) |
| Time | Latitude | Longitude | Altitude | Speed | Heading |
|---|---|---|---|---|---|
| 2026-05-07 17:15 | -21.24241 | -175.14150 | 92 ft | 0 kts | 75° |
| 2026-05-07 17:43 | -21.24241 | -175.14141 | 92 ft | 4 kts | 99° |
| 2026-05-07 17:43 | -21.24262 | -175.14135 | 93 ft | 4 kts | 208° |
| 2026-05-07 17:43 | -21.24262 | -175.14161 | 95 ft | 4 kts | 292° |
| 2026-05-07 17:43 | -21.24253 | -175.14188 | 92 ft | 4 kts | 281° |
| 2026-05-07 17:44 | -21.24266 | -175.14225 | 93 ft | 8 kts | 228° |
| 2026-05-07 17:44 | -21.24323 | -175.14266 | 95 ft | 11 kts | 213° |
| 2026-05-07 17:44 | -21.24391 | -175.14312 | 98 ft | 11 kts | 212° |
| 2026-05-07 17:44 | -21.24453 | -175.14338 | 102 ft | 10 kts | 157° |
| 2026-05-07 17:45 | -21.24504 | -175.14268 | 102 ft | 14 kts | 121° |
| 2026-05-07 17:45 | -21.24565 | -175.14168 | 101 ft | 18 kts | 121° |
| 2026-05-07 17:45 | -21.24635 | -175.14045 | 99 ft | 15 kts | 120° |
| 2026-05-07 17:45 | -21.24646 | -175.13952 | 99 ft | 10 kts | 89° |
| 2026-05-07 17:46 | -21.24686 | -175.13914 | 99 ft | 9 kts | 204° |
| 2026-05-07 17:46 | -21.24682 | -175.13970 | 98 ft | 8 kts | 303° |
| 2026-05-07 17:46 | -21.24678 | -175.13976 | 99 ft | 5 kts | 303° |
| 2026-05-07 17:46 | -21.24540 | -175.14216 | 102 ft | 74 kts | 302° |
| 2026-05-07 17:47 | -21.24146 | -175.14893 | 101 ft | 139 kts | 302° |
| 2026-05-07 17:47 | -21.23559 | -175.15914 | 334 ft | 169 kts | 300° |
| 2026-05-07 17:47 | -21.22908 | -175.16988 | 959 ft | 182 kts | 305° |
| 2026-05-07 17:47 | -21.21941 | -175.17985 | 1554 ft | 196 kts | 309° |
| 2026-05-07 17:48 | -21.21237 | -175.19238 | 2018 ft | 206 kts | 291° |
| 2026-05-07 17:48 | -21.20556 | -175.20674 | 2259 ft | 224 kts | 295° |
| 2026-05-07 17:48 | -21.19767 | -175.22161 | 2700 ft | 230 kts | 294° |
| 2026-05-07 17:48 | -21.18994 | -175.23720 | 3017 ft | 249 kts | 292° |
| 2026-05-07 17:49 | -21.18554 | -175.25477 | 3562 ft | 248 kts | 266° |
| 2026-05-07 17:49 | -21.18912 | -175.27248 | 4290 ft | 245 kts | 242° |
| 2026-05-07 17:49 | -21.19976 | -175.28657 | 5027 ft | 247 kts | 216° |
| 2026-05-07 17:49 | -21.21441 | -175.29641 | 5702 ft | 250 kts | 224° |
| 2026-05-07 17:50 | -21.22340 | -175.31216 | 6361 ft | 252 kts | 249° |
| 2026-05-07 17:50 | -21.22941 | -175.32997 | 6994 ft | 256 kts | 248° |
| 2026-05-07 17:50 | -21.23586 | -175.34771 | 7745 ft | 254 kts | 248° |
| 2026-05-07 17:50 | -21.24260 | -175.36530 | 8434 ft | 256 kts | 247° |
| 2026-05-07 17:51 | -21.24959 | -175.38292 | 9116 ft | 258 kts | 247° |
| 2026-05-07 17:51 | -21.25674 | -175.40064 | 9787 ft | 260 kts | 247° |
| 2026-05-07 17:51 | -21.26399 | -175.41851 | 10330 ft | 266 kts | 248° |
| 2026-05-07 17:51 | -21.27165 | -175.43738 | 10476 ft | 286 kts | 247° |
| 2026-05-07 17:52 | -21.27986 | -175.45758 | 10633 ft | 305 kts | 247° |
| 2026-05-07 17:52 | -21.28859 | -175.47906 | 10763 ft | 323 kts | 247° |
| 2026-05-07 17:52 | -21.29780 | -175.50172 | 10887 ft | 340 kts | 247° |
| 2026-05-07 17:52 | -21.30746 | -175.52550 | 11000 ft | 355 kts | 247° |
| 2026-05-07 17:53 | -21.31748 | -175.55019 | 11203 ft | 365 kts | 247° |
| 2026-05-07 17:53 | -21.32769 | -175.57534 | 11604 ft | 370 kts | 247° |
| 2026-05-07 17:53 | -21.33797 | -175.60067 | 12101 ft | 371 kts | 247° |
| 2026-05-07 17:53 | -21.34828 | -175.62611 | 12590 ft | 373 kts | 247° |
| 2026-05-07 17:54 | -21.35864 | -175.65167 | 13043 ft | 375 kts | 247° |
| 2026-05-07 17:54 | -21.36906 | -175.67739 | 13510 ft | 377 kts | 248° |
| 2026-05-07 17:54 | -21.37952 | -175.70324 | 13928 ft | 379 kts | 248° |
| 2026-05-07 17:54 | -21.39005 | -175.72928 | 14313 ft | 382 kts | 248° |
| 2026-05-07 17:55 | -21.40064 | -175.75546 | 14708 ft | 383 kts | 248° |
| 2026-05-07 17:55 | -21.41125 | -175.78174 | 15100 ft | 385 kts | 248° |
| 2026-05-07 17:55 | -21.42193 | -175.80818 | 15462 ft | 387 kts | 248° |
| 2026-05-07 17:55 | -21.43264 | -175.83475 | 15819 ft | 389 kts | 248° |
| 2026-05-07 17:56 | -21.44342 | -175.86150 | 16186 ft | 391 kts | 248° |
| 2026-05-07 17:56 | -21.45424 | -175.88833 | 16555 ft | 393 kts | 248° |
| 2026-05-07 17:56 | -21.46512 | -175.91531 | 16906 ft | 395 kts | 248° |
| 2026-05-07 17:56 | -21.47605 | -175.94242 | 17244 ft | 397 kts | 248° |
| 2026-05-07 17:57 | -21.48700 | -175.96964 | 17564 ft | 399 kts | 248° |
| 2026-05-07 17:57 | -21.49431 | -175.98779 | 17763 ft | 400 kts | 248° |
| 2026-05-07 17:57 | -21.50910 | -176.02459 | 18182 ft | 403 kts | 248° |
| 2026-05-07 17:57 | -21.52022 | -176.05224 | 18453 ft | 404 kts | 248° |
| 2026-05-07 17:58 | -21.53138 | -176.08003 | 18720 ft | 406 kts | 248° |
| 2026-05-07 17:58 | -21.54258 | -176.10794 | 18987 ft | 408 kts | 248° |
| 2026-05-07 17:58 | -21.55383 | -176.13598 | 19240 ft | 409 kts | 248° |
| 2026-05-07 17:58 | -21.56512 | -176.16414 | 19502 ft | 411 kts | 248° |
| 2026-05-07 17:59 | -21.57645 | -176.19242 | 19752 ft | 413 kts | 247° |
| 2026-05-07 17:59 | -21.58768 | -176.22048 | 19986 ft | 415 kts | 247° |
| 2026-05-07 17:59 | -21.59925 | -176.24938 | 20248 ft | 417 kts | 247° |
| 2026-05-07 17:59 | -21.61056 | -176.27766 | 20498 ft | 418 kts | 247° |
| 2026-05-07 18:00 | -21.62206 | -176.30643 | 20739 ft | 420 kts | 247° |
| 2026-05-07 18:00 | -21.63360 | -176.33532 | 20988 ft | 421 kts | 247° |
| 2026-05-07 18:00 | -21.64519 | -176.36433 | 21238 ft | 423 kts | 247° |
| 2026-05-07 18:00 | -21.65668 | -176.39346 | 21466 ft | 425 kts | 249° |
| 2026-05-07 18:01 | -21.66384 | -176.42426 | 21644 ft | 428 kts | 264° |
| 2026-05-07 18:01 | -21.66531 | -176.45622 | 21911 ft | 429 kts | 265° |
| 2026-05-07 18:01 | -21.66718 | -176.48829 | 22132 ft | 430 kts | 264° |
| 2026-05-07 18:01 | -21.66938 | -176.52045 | 22340 ft | 432 kts | 264° |
| 2026-05-07 18:02 | -21.67416 | -176.58512 | 22744 ft | 436 kts | 264° |
| 2026-05-07 18:02 | -21.67659 | -176.61768 | 22920 ft | 438 kts | 264° |
| 2026-05-07 18:02 | -21.67901 | -176.65038 | 23145 ft | 439 kts | 264° |
| 2026-05-07 18:03 | -21.68142 | -176.68319 | 23359 ft | 441 kts | 264° |
| 2026-05-07 18:03 | -21.68380 | -176.71579 | 23542 ft | 442 kts | 264° |
| 2026-05-07 18:03 | -21.68618 | -176.74876 | 23705 ft | 443 kts | 264° |
| 2026-05-07 18:03 | -21.68856 | -176.78183 | 23893 ft | 444 kts | 264° |
| 2026-05-07 18:04 | -21.69093 | -176.81495 | 24085 ft | 444 kts | 264° |
| 2026-05-07 18:04 | -21.69330 | -176.84807 | 24250 ft | 445 kts | 264° |
| 2026-05-07 18:04 | -21.69566 | -176.88129 | 24411 ft | 446 kts | 264° |
| 2026-05-07 18:04 | -21.69803 | -176.91459 | 24570 ft | 447 kts | 264° |
| 2026-05-07 18:05 | -21.70039 | -176.94791 | 24714 ft | 448 kts | 263° |
| 2026-05-07 18:05 | -21.70274 | -176.98133 | 24854 ft | 449 kts | 263° |
| 2026-05-07 18:05 | -21.70511 | -177.01481 | 24993 ft | 450 kts | 263° |
| 2026-05-07 18:05 | -21.70746 | -177.04835 | 25144 ft | 450 kts | 263° |
| 2026-05-07 18:06 | -21.70982 | -177.08195 | 25298 ft | 450 kts | 263° |
| 2026-05-07 18:06 | -21.71216 | -177.11548 | 25503 ft | 450 kts | 263° |
| 2026-05-07 18:06 | -21.71449 | -177.14895 | 25737 ft | 448 kts | 263° |
| 2026-05-07 18:06 | -21.71680 | -177.18234 | 25956 ft | 447 kts | 263° |
| 2026-05-07 18:07 | -21.71910 | -177.21561 | 26165 ft | 446 kts | 263° |
| 2026-05-07 18:07 | -21.72140 | -177.24888 | 26379 ft | 445 kts | 263° |
| 2026-05-07 18:07 | -21.72368 | -177.28207 | 26611 ft | 444 kts | 263° |
| 2026-05-07 18:07 | -21.72595 | -177.31514 | 26847 ft | 443 kts | 263° |
| 2026-05-07 18:08 | -21.72821 | -177.34818 | 27063 ft | 442 kts | 262° |
| 2026-05-07 18:08 | -21.73046 | -177.38112 | 27296 ft | 441 kts | 262° |
| 2026-05-07 18:08 | -21.73269 | -177.41396 | 27528 ft | 440 kts | 262° |
| 2026-05-07 18:08 | -21.73492 | -177.44674 | 27760 ft | 439 kts | 262° |
| 2026-05-07 18:09 | -21.73710 | -177.47901 | 27988 ft | 438 kts | 262° |
| 2026-05-07 18:09 | -21.73930 | -177.51166 | 28225 ft | 437 kts | 262° |
| 2026-05-07 18:09 | -21.74149 | -177.54422 | 28461 ft | 436 kts | 262° |
| 2026-05-07 18:09 | -21.74367 | -177.57670 | 28702 ft | 435 kts | 262° |
| 2026-05-07 18:10 | -21.74584 | -177.60915 | 28945 ft | 434 kts | 262° |
| 2026-05-07 18:10 | -21.74799 | -177.64142 | 29236 ft | 432 kts | 262° |
| 2026-05-07 18:10 | -21.75012 | -177.67356 | 29551 ft | 429 kts | 262° |
| 2026-05-07 18:10 | -21.75224 | -177.70554 | 29828 ft | 428 kts | 262° |
| 2026-05-07 18:11 | -21.75434 | -177.73743 | 29942 ft | 428 kts | 262° |
| 2026-05-07 18:11 | -21.75857 | -177.80148 | 29945 ft | 429 kts | 262° |
| 2026-05-07 18:12 | -21.76275 | -177.86533 | 29955 ft | 427 kts | 262° |
| 2026-05-07 18:12 | -21.76689 | -177.92906 | 29952 ft | 426 kts | 262° |
| 2026-05-07 18:13 | -21.77100 | -177.99267 | 29953 ft | 426 kts | 262° |
| 2026-05-07 18:13 | -21.77508 | -178.05621 | 29958 ft | 426 kts | 262° |
| 2026-05-07 18:14 | -21.77914 | -178.11972 | 29954 ft | 426 kts | 261° |
| 2026-05-07 18:14 | -21.78317 | -178.18329 | 29966 ft | 426 kts | 261° |
| 2026-05-07 18:15 | -21.78719 | -178.24698 | 29967 ft | 427 kts | 261° |
| 2026-05-07 18:15 | -21.79120 | -178.31088 | 29963 ft | 429 kts | 261° |
| 2026-05-07 18:16 | -21.79452 | -178.36411 | 29963 ft | 429 kts | 261° |
| 2026-05-07 18:16 | -21.79863 | -178.42826 | 29964 ft | 429 kts | 259° |
| 2026-05-07 18:17 | -21.81278 | -178.48986 | 29948 ft | 422 kts | 246° |
| 2026-05-07 18:17 | -21.83881 | -178.54602 | 29966 ft | 419 kts | 239° |
| 2026-05-07 18:18 | -21.86675 | -178.60118 | 29971 ft | 420 kts | 239° |
| 2026-05-07 18:18 | -21.89459 | -178.65654 | 29972 ft | 420 kts | 239° |
| 2026-05-07 18:19 | -21.92231 | -178.71202 | 29971 ft | 421 kts | 239° |
| 2026-05-07 18:19 | -21.94995 | -178.76756 | 29972 ft | 421 kts | 239° |
| 2026-05-07 18:20 | -21.97759 | -178.82315 | 29974 ft | 421 kts | 239° |
| 2026-05-07 18:20 | -22.00516 | -178.87870 | 29966 ft | 420 kts | 239° |
| 2026-05-07 18:21 | -22.03270 | -178.93421 | 29970 ft | 420 kts | 239° |
| 2026-05-07 18:21 | -22.06019 | -178.98968 | 29975 ft | 419 kts | 239° |
| 2026-05-07 18:22 | -22.08764 | -179.04514 | 29979 ft | 419 kts | 239° |
| 2026-05-07 18:22 | -22.11486 | -179.10019 | 29979 ft | 419 kts | 239° |
| 2026-05-07 18:23 | -22.14227 | -179.15569 | 29988 ft | 420 kts | 239° |
| 2026-05-07 18:23 | -22.16988 | -179.21163 | 29981 ft | 420 kts | 239° |
| 2026-05-07 18:24 | -22.19709 | -179.26685 | 29979 ft | 419 kts | 239° |
| 2026-05-07 18:24 | -22.22444 | -179.32240 | 29980 ft | 419 kts | 239° |
| 2026-05-07 18:25 | -22.25178 | -179.37797 | 29983 ft | 419 kts | 239° |
| 2026-05-07 18:25 | -22.27910 | -179.43358 | 29990 ft | 419 kts | 239° |
| 2026-05-07 18:26 | -22.30637 | -179.48916 | 29983 ft | 419 kts | 239° |
| 2026-05-07 18:26 | -22.33368 | -179.54487 | 29992 ft | 420 kts | 239° |
| 2026-05-07 18:27 | -22.36097 | -179.60059 | 29992 ft | 420 kts | 239° |
| 2026-05-07 18:27 | -22.38824 | -179.65634 | 29991 ft | 420 kts | 239° |
| 2026-05-07 18:28 | -22.41551 | -179.71214 | 29995 ft | 420 kts | 239° |
| 2026-05-07 18:28 | -22.44275 | -179.76795 | 29991 ft | 420 kts | 239° |
| 2026-05-07 18:29 | -22.46997 | -179.82378 | 30001 ft | 420 kts | 239° |
| 2026-05-07 18:29 | -22.49719 | -179.87968 | 29995 ft | 420 kts | 239° |
| 2026-05-07 18:30 | -22.52442 | -179.93564 | 29994 ft | 420 kts | 239° |
| 2026-05-07 18:30 | -22.55162 | -179.99162 | 29985 ft | 420 kts | 239° |
| 2026-05-07 18:31 | -22.57877 | 179.95244 | 29991 ft | 420 kts | 239° |
| 2026-05-07 18:31 | -22.60572 | 179.89686 | 30001 ft | 420 kts | 239° |
| 2026-05-07 18:32 | -22.63282 | 179.84091 | 29998 ft | 420 kts | 239° |
| 2026-05-07 18:32 | -22.65992 | 179.78490 | 30001 ft | 420 kts | 239° |
| 2026-05-07 18:33 | -22.68718 | 179.72848 | 29996 ft | 420 kts | 239° |
| 2026-05-07 18:33 | -22.71407 | 179.67279 | 30004 ft | 420 kts | 239° |
| 2026-05-07 18:34 | -22.74113 | 179.61666 | 29984 ft | 420 kts | 239° |
| 2026-05-07 18:34 | -22.76819 | 179.56049 | 29999 ft | 421 kts | 239° |
| 2026-05-07 18:35 | -22.79525 | 179.50424 | 30006 ft | 422 kts | 239° |
| 2026-05-07 18:35 | -22.82237 | 179.44782 | 30005 ft | 422 kts | 239° |
| 2026-05-07 18:36 | -22.84950 | 179.39130 | 30006 ft | 423 kts | 239° |
| 2026-05-07 18:36 | -22.87661 | 179.33474 | 30007 ft | 423 kts | 239° |
| 2026-05-07 18:37 | -22.90373 | 179.27812 | 30007 ft | 423 kts | 239° |
| 2026-05-07 18:37 | -22.93081 | 179.22151 | 29988 ft | 423 kts | 239° |
| 2026-05-07 18:38 | -22.95784 | 179.16492 | 30001 ft | 422 kts | 239° |
| 2026-05-07 18:38 | -22.98485 | 179.10835 | 30011 ft | 422 kts | 239° |
| 2026-05-07 18:39 | -23.01164 | 179.05215 | 30016 ft | 422 kts | 239° |
| 2026-05-07 18:39 | -23.03861 | 178.99552 | 30011 ft | 422 kts | 239° |
| 2026-05-07 18:40 | -23.06556 | 178.93886 | 30016 ft | 422 kts | 239° |
| 2026-05-07 18:40 | -23.09250 | 178.88215 | 30013 ft | 422 kts | 239° |
| 2026-05-07 18:41 | -23.11942 | 178.82542 | 30014 ft | 422 kts | 239° |
| 2026-05-07 18:41 | -23.14629 | 178.76873 | 30021 ft | 422 kts | 239° |
| 2026-05-07 18:42 | -23.17314 | 178.71203 | 30020 ft | 422 kts | 239° |
| 2026-05-07 18:42 | -23.19995 | 178.65535 | 30021 ft | 421 kts | 239° |
| 2026-05-07 18:43 | -23.22671 | 178.59869 | 30020 ft | 421 kts | 239° |
| 2026-05-07 18:43 | -23.25346 | 178.54199 | 30019 ft | 421 kts | 239° |
| 2026-05-07 18:44 | -23.28016 | 178.48535 | 30020 ft | 421 kts | 239° |
| 2026-05-07 18:44 | -23.30682 | 178.42870 | 30020 ft | 420 kts | 239° |
| 2026-05-07 18:45 | -23.33326 | 178.37248 | 30026 ft | 420 kts | 239° |
| 2026-05-07 18:45 | -23.35986 | 178.31583 | 30031 ft | 420 kts | 239° |
| 2026-05-07 18:46 | -23.38645 | 178.25915 | 30026 ft | 420 kts | 239° |
| 2026-05-07 18:46 | -23.41303 | 178.20243 | 30030 ft | 421 kts | 239° |
| 2026-05-07 18:47 | -23.43958 | 178.14569 | 30045 ft | 421 kts | 239° |
| 2026-05-07 18:47 | -23.46616 | 178.08883 | 30014 ft | 421 kts | 239° |
| 2026-05-07 18:48 | -23.49270 | 178.03197 | 30027 ft | 421 kts | 239° |
| 2026-05-07 18:48 | -23.51921 | 177.97514 | 30036 ft | 421 kts | 239° |
| 2026-05-07 18:49 | -23.54570 | 177.91825 | 30032 ft | 421 kts | 239° |
| 2026-05-07 18:49 | -23.57216 | 177.86138 | 30039 ft | 421 kts | 239° |
| 2026-05-07 18:50 | -23.59844 | 177.80484 | 30038 ft | 421 kts | 239° |
| 2026-05-07 18:50 | -23.62486 | 177.74791 | 30040 ft | 421 kts | 239° |
| 2026-05-07 18:51 | -23.65127 | 177.69094 | 30028 ft | 420 kts | 239° |
| 2026-05-07 18:51 | -23.67761 | 177.63406 | 30037 ft | 420 kts | 239° |
| 2026-05-07 18:52 | -23.70393 | 177.57715 | 30039 ft | 420 kts | 239° |
| 2026-05-07 18:52 | -23.73021 | 177.52025 | 30063 ft | 420 kts | 239° |
| 2026-05-07 18:53 | -23.75647 | 177.46334 | 30043 ft | 420 kts | 239° |
| 2026-05-07 18:53 | -23.78269 | 177.40643 | 30047 ft | 419 kts | 239° |
| 2026-05-07 18:54 | -23.80889 | 177.34952 | 30051 ft | 419 kts | 239° |
| 2026-05-07 18:54 | -23.83503 | 177.29264 | 30045 ft | 419 kts | 239° |
| 2026-05-07 18:55 | -23.86113 | 177.23581 | 30044 ft | 418 kts | 239° |
| 2026-05-07 18:55 | -23.88717 | 177.17902 | 30045 ft | 418 kts | 239° |
| 2026-05-07 18:56 | -23.91320 | 177.12221 | 30052 ft | 418 kts | 239° |
| 2026-05-07 18:56 | -23.93901 | 177.06579 | 30049 ft | 418 kts | 239° |
| 2026-05-07 18:57 | -23.96497 | 177.00899 | 30048 ft | 418 kts | 239° |
| 2026-05-07 18:57 | -23.99089 | 176.95219 | 30055 ft | 417 kts | 239° |
| 2026-05-07 18:58 | -24.01676 | 176.89543 | 30046 ft | 416 kts | 239° |
| 2026-05-07 18:58 | -24.04256 | 176.83878 | 30070 ft | 416 kts | 239° |
| 2026-05-07 18:59 | -24.06831 | 176.78216 | 30055 ft | 415 kts | 239° |
| 2026-05-07 18:59 | -24.09400 | 176.72560 | 30054 ft | 415 kts | 240° |
| 2026-05-07 19:00 | -24.11964 | 176.66908 | 30057 ft | 414 kts | 240° |
| 2026-05-07 19:00 | -24.14522 | 176.61261 | 30063 ft | 414 kts | 240° |
| 2026-05-07 19:01 | -24.17076 | 176.55618 | 30061 ft | 413 kts | 240° |
| 2026-05-07 19:01 | -24.19610 | 176.50013 | 30062 ft | 413 kts | 240° |
| 2026-05-07 19:02 | -24.22159 | 176.44368 | 30056 ft | 413 kts | 240° |
| 2026-05-07 19:02 | -24.24707 | 176.38717 | 30055 ft | 414 kts | 240° |
| 2026-05-07 19:03 | -24.27254 | 176.33062 | 30060 ft | 414 kts | 240° |
| 2026-05-07 19:03 | -24.29801 | 176.27399 | 30059 ft | 414 kts | 240° |
| 2026-05-07 19:04 | -24.32349 | 176.21729 | 30061 ft | 415 kts | 240° |
| 2026-05-07 19:04 | -24.34895 | 176.16054 | 30062 ft | 415 kts | 240° |
| 2026-05-07 19:05 | -24.37438 | 176.10379 | 30061 ft | 415 kts | 240° |
| 2026-05-07 19:05 | -24.39983 | 176.04694 | 30060 ft | 415 kts | 240° |
| 2026-05-07 19:06 | -24.42524 | 175.99009 | 30055 ft | 415 kts | 240° |
| 2026-05-07 19:06 | -24.46335 | 175.90472 | 30064 ft | 415 kts | 240° |
| 2026-05-07 19:07 | -24.48870 | 175.84783 | 30067 ft | 415 kts | 240° |
| 2026-05-07 19:07 | -24.51403 | 175.79091 | 30051 ft | 415 kts | 241° |
| 2026-05-07 19:08 | -24.53912 | 175.73447 | 30062 ft | 415 kts | 241° |
| 2026-05-07 19:08 | -24.56033 | 175.68672 | 30064 ft | 415 kts | 241° |
| 2026-05-07 19:09 | -24.58562 | 175.62973 | 30069 ft | 415 kts | 241° |
| 2026-05-07 19:09 | -24.61092 | 175.57260 | 30068 ft | 416 kts | 241° |
| 2026-05-07 19:10 | -24.63621 | 175.51544 | 30068 ft | 416 kts | 241° |
| 2026-05-07 19:10 | -24.66150 | 175.45821 | 30066 ft | 416 kts | 241° |
| 2026-05-07 19:11 | -24.68675 | 175.40098 | 30059 ft | 416 kts | 241° |
| 2026-05-07 19:11 | -24.71202 | 175.34367 | 30076 ft | 417 kts | 241° |
| 2026-05-07 19:12 | -24.73726 | 175.28633 | 30074 ft | 417 kts | 241° |
| 2026-05-07 19:12 | -24.76253 | 175.22885 | 30074 ft | 417 kts | 241° |
| 2026-05-07 19:13 | -24.78763 | 175.17167 | 30070 ft | 418 kts | 241° |
| 2026-05-07 19:13 | -24.81289 | 175.11407 | 30073 ft | 418 kts | 241° |
| 2026-05-07 19:14 | -24.83814 | 175.05642 | 30074 ft | 418 kts | 241° |
| 2026-05-07 19:14 | -24.86334 | 174.99879 | 30070 ft | 418 kts | 242° |
| 2026-05-07 19:15 | -24.88854 | 174.94111 | 30078 ft | 418 kts | 242° |
| 2026-05-07 19:15 | -24.91369 | 174.88347 | 30076 ft | 418 kts | 242° |
| 2026-05-07 19:16 | -24.93880 | 174.82583 | 30081 ft | 417 kts | 242° |
| 2026-05-07 19:16 | -24.96388 | 174.76818 | 30075 ft | 417 kts | 242° |
| 2026-05-07 19:17 | -24.98893 | 174.71053 | 30076 ft | 417 kts | 242° |
| 2026-05-07 19:17 | -25.01811 | 174.65575 | 30072 ft | 414 kts | 233° |
| 2026-05-07 19:18 | -25.05174 | 174.60426 | 30075 ft | 414 kts | 233° |
| 2026-05-07 19:18 | -25.08526 | 174.55254 | 30073 ft | 415 kts | 233° |
| 2026-05-07 19:19 | -25.11871 | 174.50063 | 30077 ft | 416 kts | 234° |
| 2026-05-07 19:19 | -25.15194 | 174.44888 | 30076 ft | 416 kts | 234° |
| 2026-05-07 19:20 | -25.18543 | 174.39665 | 30080 ft | 417 kts | 234° |
| 2026-05-07 19:20 | -25.21895 | 174.34432 | 30079 ft | 418 kts | 234° |
| 2026-05-07 19:21 | -25.25248 | 174.29191 | 30083 ft | 418 kts | 234° |
| 2026-05-07 19:21 | -25.28602 | 174.23944 | 30075 ft | 418 kts | 234° |
| 2026-05-07 19:22 | -25.31955 | 174.18693 | 30082 ft | 418 kts | 234° |
| 2026-05-07 19:22 | -25.35308 | 174.13434 | 30080 ft | 419 kts | 234° |
| 2026-05-07 19:23 | -25.38663 | 174.08168 | 30081 ft | 419 kts | 234° |
| 2026-05-07 19:23 | -25.42015 | 174.02901 | 30080 ft | 419 kts | 234° |
| 2026-05-07 19:24 | -25.45369 | 173.97624 | 30074 ft | 419 kts | 234° |
| 2026-05-07 19:24 | -25.48721 | 173.92344 | 30086 ft | 419 kts | 234° |
| 2026-05-07 19:25 | -25.52072 | 173.87060 | 30097 ft | 419 kts | 234° |
| 2026-05-07 19:25 | -25.55427 | 173.81763 | 30085 ft | 420 kts | 234° |
| 2026-05-07 19:26 | -25.58782 | 173.76463 | 30081 ft | 420 kts | 234° |
| 2026-05-07 19:26 | -25.62138 | 173.71152 | 30082 ft | 421 kts | 234° |
| 2026-05-07 19:27 | -25.65478 | 173.65861 | 30080 ft | 421 kts | 234° |
| 2026-05-07 19:27 | -25.68831 | 173.60545 | 30082 ft | 421 kts | 234° |
| 2026-05-07 19:28 | -25.72183 | 173.55223 | 30082 ft | 421 kts | 234° |
| 2026-05-07 19:28 | -25.75529 | 173.49903 | 30080 ft | 420 kts | 235° |
| 2026-05-07 19:29 | -25.78852 | 173.44618 | 30088 ft | 420 kts | 235° |
| 2026-05-07 19:29 | -25.82193 | 173.39296 | 30095 ft | 420 kts | 235° |
| 2026-05-07 19:30 | -25.85529 | 173.33975 | 30082 ft | 420 kts | 235° |
| 2026-05-07 19:30 | -25.88860 | 173.28658 | 30086 ft | 419 kts | 235° |
| 2026-05-07 19:31 | -25.92182 | 173.23347 | 30086 ft | 418 kts | 235° |
| 2026-05-07 19:31 | -25.95497 | 173.18042 | 30088 ft | 418 kts | 235° |
| 2026-05-07 19:32 | -25.98808 | 173.12736 | 30088 ft | 418 kts | 236° |
| 2026-05-07 19:32 | -26.02115 | 173.07433 | 30084 ft | 417 kts | 236° |
| 2026-05-07 19:33 | -26.05421 | 173.02125 | 30088 ft | 417 kts | 236° |
| 2026-05-07 19:33 | -26.08724 | 172.96814 | 30086 ft | 418 kts | 236° |
| 2026-05-07 19:34 | -26.12028 | 172.91496 | 30085 ft | 418 kts | 236° |
| 2026-05-07 19:34 | -26.15330 | 172.86175 | 30083 ft | 418 kts | 236° |
| 2026-05-07 19:35 | -26.18607 | 172.80889 | 30083 ft | 418 kts | 236° |
| 2026-05-07 19:35 | -26.21903 | 172.75566 | 30088 ft | 417 kts | 236° |
| 2026-05-07 19:36 | -26.25195 | 172.70243 | 30084 ft | 417 kts | 236° |
| 2026-05-07 19:36 | -26.28486 | 172.64914 | 30084 ft | 417 kts | 236° |
| 2026-05-07 19:37 | -26.31774 | 172.59586 | 30084 ft | 417 kts | 236° |
| 2026-05-07 19:37 | -26.35061 | 172.54251 | 30086 ft | 417 kts | 236° |
| 2026-05-07 19:38 | -26.38345 | 172.48917 | 30090 ft | 417 kts | 236° |
| 2026-05-07 19:38 | -26.41630 | 172.43574 | 30082 ft | 418 kts | 236° |
| 2026-05-07 19:39 | -26.44916 | 172.38224 | 30080 ft | 418 kts | 236° |
| 2026-05-07 19:39 | -26.48176 | 172.32909 | 30084 ft | 418 kts | 236° |
| 2026-05-07 19:40 | -26.51458 | 172.27552 | 30082 ft | 418 kts | 236° |
| 2026-05-07 19:40 | -26.54739 | 172.22190 | 30082 ft | 418 kts | 236° |
| 2026-05-07 19:41 | -26.58017 | 172.16827 | 30085 ft | 418 kts | 237° |
| 2026-05-07 19:41 | -26.61297 | 172.11455 | 30083 ft | 418 kts | 237° |
| 2026-05-07 19:42 | -26.64573 | 172.06081 | 30082 ft | 418 kts | 237° |
| 2026-05-07 19:42 | -26.67848 | 172.00701 | 30078 ft | 419 kts | 237° |
| 2026-05-07 19:43 | -26.71126 | 171.95314 | 30084 ft | 419 kts | 237° |
| 2026-05-07 19:43 | -26.74408 | 171.89914 | 30081 ft | 420 kts | 237° |
| 2026-05-07 19:44 | -26.77692 | 171.84503 | 30087 ft | 420 kts | 237° |
| 2026-05-07 19:44 | -26.80975 | 171.79087 | 30085 ft | 421 kts | 237° |
| 2026-05-07 19:45 | -26.84260 | 171.73661 | 30081 ft | 421 kts | 237° |
| 2026-05-07 19:45 | -26.87521 | 171.68268 | 30081 ft | 421 kts | 237° |
| 2026-05-07 19:46 | -26.90804 | 171.62831 | 30080 ft | 421 kts | 238° |
| 2026-05-07 19:46 | -26.94083 | 171.57396 | 30092 ft | 421 kts | 238° |
| 2026-05-07 19:47 | -26.97362 | 171.51954 | 30086 ft | 421 kts | 238° |
| 2026-05-07 19:47 | -27.00637 | 171.46511 | 30083 ft | 421 kts | 238° |
| 2026-05-07 19:48 | -27.03910 | 171.41066 | 30083 ft | 421 kts | 238° |
| 2026-05-07 19:48 | -27.07178 | 171.35621 | 30083 ft | 421 kts | 238° |
| 2026-05-07 19:49 | -27.10443 | 171.30175 | 30085 ft | 420 kts | 238° |
| 2026-05-07 19:49 | -27.13703 | 171.24731 | 30087 ft | 420 kts | 238° |
| 2026-05-07 19:50 | -27.16959 | 171.19287 | 30085 ft | 420 kts | 238° |
| 2026-05-07 19:50 | -27.20209 | 171.13846 | 30107 ft | 419 kts | 238° |
| 2026-05-07 19:51 | -27.23451 | 171.08411 | 30082 ft | 418 kts | 238° |
| 2026-05-07 19:51 | -27.26683 | 171.02987 | 30076 ft | 417 kts | 238° |
| 2026-05-07 19:52 | -27.29908 | 170.97569 | 30084 ft | 416 kts | 238° |
| 2026-05-07 19:52 | -27.33123 | 170.92160 | 30078 ft | 416 kts | 238° |
| 2026-05-07 19:53 | -27.36335 | 170.86749 | 30069 ft | 416 kts | 238° |
| 2026-05-07 19:53 | -27.39544 | 170.81338 | 30081 ft | 416 kts | 238° |
| 2026-05-07 19:54 | -27.42734 | 170.75950 | 30078 ft | 417 kts | 238° |
| 2026-05-07 19:54 | -27.45948 | 170.70517 | 30073 ft | 417 kts | 238° |
| 2026-05-07 19:55 | -27.49168 | 170.65066 | 30073 ft | 418 kts | 238° |
| 2026-05-07 19:55 | -27.52390 | 170.59604 | 30082 ft | 419 kts | 238° |
| 2026-05-07 19:56 | -27.55614 | 170.54134 | 30070 ft | 419 kts | 238° |
| 2026-05-07 19:56 | -27.58842 | 170.48652 | 30069 ft | 420 kts | 239° |
| 2026-05-07 19:57 | -27.62068 | 170.43161 | 30075 ft | 420 kts | 239° |
| 2026-05-07 19:57 | -27.65294 | 170.37666 | 30080 ft | 420 kts | 239° |
| 2026-05-07 19:58 | -27.68520 | 170.32163 | 30071 ft | 420 kts | 239° |
| 2026-05-07 19:58 | -27.71743 | 170.26661 | 30080 ft | 420 kts | 239° |
| 2026-05-07 19:59 | -27.74940 | 170.21193 | 30075 ft | 420 kts | 239° |
| 2026-05-07 19:59 | -27.78154 | 170.15693 | 30070 ft | 419 kts | 239° |
| 2026-05-07 20:00 | -27.81352 | 170.10212 | 30071 ft | 417 kts | 239° |
| 2026-05-07 20:00 | -27.84535 | 170.04747 | 30071 ft | 416 kts | 239° |
| 2026-05-07 20:01 | -27.87171 | 170.00218 | 30066 ft | 415 kts | 239° |
| 2026-05-07 20:01 | -27.90333 | 169.94777 | 30069 ft | 414 kts | 240° |
| 2026-05-07 20:02 | -27.93487 | 169.89344 | 30067 ft | 413 kts | 240° |
| 2026-05-07 20:02 | -27.96634 | 169.83917 | 30064 ft | 413 kts | 240° |
| 2026-05-07 20:03 | -27.99780 | 169.78485 | 30081 ft | 413 kts | 240° |
| 2026-05-07 20:03 | -28.02925 | 169.73046 | 30066 ft | 413 kts | 240° |
| 2026-05-07 20:04 | -28.06073 | 169.67597 | 30063 ft | 413 kts | 240° |
| 2026-05-07 20:04 | -28.09219 | 169.62143 | 30063 ft | 414 kts | 240° |
| 2026-05-07 20:05 | -28.12365 | 169.56683 | 30062 ft | 414 kts | 240° |
| 2026-05-07 20:05 | -28.15509 | 169.51218 | 30062 ft | 414 kts | 240° |
| 2026-05-07 20:06 | -28.18653 | 169.45747 | 30066 ft | 415 kts | 240° |
| 2026-05-07 20:06 | -28.21798 | 169.40264 | 30064 ft | 415 kts | 241° |
| 2026-05-07 20:07 | -28.24941 | 169.34780 | 30084 ft | 415 kts | 241° |
| 2026-05-07 20:07 | -28.28090 | 169.29283 | 30073 ft | 416 kts | 241° |
| 2026-05-07 20:08 | -28.31219 | 169.23812 | 30060 ft | 416 kts | 241° |
| 2026-05-07 20:08 | -28.34370 | 169.18293 | 30061 ft | 417 kts | 241° |
| 2026-05-07 20:09 | -28.37520 | 169.12771 | 30056 ft | 417 kts | 241° |
| 2026-05-07 20:10 | -28.42238 | 169.04483 | 30052 ft | 417 kts | 241° |
| 2026-05-07 20:10 | -28.45382 | 168.98953 | 30060 ft | 416 kts | 241° |
| 2026-05-07 20:11 | -28.48521 | 168.93423 | 30054 ft | 416 kts | 241° |
| 2026-05-07 20:11 | -28.51657 | 168.87890 | 30059 ft | 417 kts | 242° |
| 2026-05-07 20:12 | -28.54801 | 168.82336 | 30062 ft | 418 kts | 242° |
| 2026-05-07 20:12 | -28.57952 | 168.76764 | 30053 ft | 419 kts | 242° |
| 2026-05-07 20:13 | -28.61087 | 168.71212 | 30052 ft | 420 kts | 242° |
| 2026-05-07 20:13 | -28.64245 | 168.65613 | 30051 ft | 420 kts | 242° |
| 2026-05-07 20:14 | -28.67397 | 168.60018 | 30039 ft | 419 kts | 242° |
| 2026-05-07 20:14 | -28.70536 | 168.54438 | 30045 ft | 418 kts | 242° |
| 2026-05-07 20:15 | -28.73664 | 168.48868 | 30043 ft | 417 kts | 242° |
| 2026-05-07 20:15 | -28.76783 | 168.43308 | 30044 ft | 416 kts | 242° |
| 2026-05-07 20:16 | -28.79900 | 168.37743 | 30044 ft | 417 kts | 242° |
| 2026-05-07 20:16 | -28.83019 | 168.32167 | 30053 ft | 417 kts | 243° |
| 2026-05-07 20:17 | -28.86141 | 168.26579 | 30043 ft | 418 kts | 243° |
| 2026-05-07 20:17 | -28.89246 | 168.21014 | 30035 ft | 419 kts | 243° |
| 2026-05-07 20:18 | -28.92372 | 168.15404 | 30037 ft | 419 kts | 243° |
| 2026-05-07 20:18 | -28.95498 | 168.09785 | 30045 ft | 419 kts | 243° |
| 2026-05-07 20:19 | -28.98622 | 168.04163 | 30047 ft | 419 kts | 243° |
| 2026-05-07 20:19 | -29.01746 | 167.98533 | 30057 ft | 420 kts | 243° |
| 2026-05-07 20:20 | -29.04762 | 167.92845 | 30051 ft | 416 kts | 248° |
| 2026-05-07 20:20 | -29.06789 | 167.86717 | 30048 ft | 412 kts | 254° |
| 2026-05-07 20:21 | -29.08696 | 167.80552 | 30025 ft | 411 kts | 254° |
| 2026-05-07 20:21 | -29.10619 | 167.74395 | 30025 ft | 411 kts | 254° |
| 2026-05-07 20:22 | -29.12545 | 167.68243 | 30024 ft | 411 kts | 254° |
| 2026-05-07 20:22 | -29.14468 | 167.62096 | 30019 ft | 411 kts | 254° |
| 2026-05-07 20:23 | -29.16389 | 167.55944 | 30028 ft | 410 kts | 255° |
| 2026-05-07 20:23 | -29.18305 | 167.49797 | 30017 ft | 410 kts | 255° |
| 2026-05-07 20:24 | -29.20216 | 167.43657 | 30019 ft | 409 kts | 255° |
| 2026-05-07 20:24 | -29.22121 | 167.37523 | 30018 ft | 409 kts | 255° |
| 2026-05-07 20:25 | -29.24026 | 167.31399 | 30016 ft | 408 kts | 256° |
| 2026-05-07 20:25 | -29.25916 | 167.25277 | 30014 ft | 408 kts | 256° |
| 2026-05-07 20:26 | -29.27803 | 167.19160 | 30028 ft | 406 kts | 256° |
| 2026-05-07 20:26 | -29.29682 | 167.13061 | 30016 ft | 406 kts | 256° |
| 2026-05-07 20:27 | -29.31554 | 167.06977 | 30003 ft | 404 kts | 256° |
| 2026-05-07 20:27 | -29.33420 | 167.00900 | 30016 ft | 404 kts | 256° |
| 2026-05-07 20:28 | -29.35280 | 166.94832 | 30001 ft | 403 kts | 256° |
| 2026-05-07 20:28 | -29.37135 | 166.88772 | 30013 ft | 403 kts | 256° |
| 2026-05-07 20:29 | -29.38974 | 166.82748 | 30021 ft | 403 kts | 256° |
| 2026-05-07 20:29 | -29.40821 | 166.76691 | 30005 ft | 402 kts | 256° |
| 2026-05-07 20:30 | -29.42664 | 166.70636 | 30000 ft | 402 kts | 256° |
| 2026-05-07 20:30 | -29.44502 | 166.64585 | 30024 ft | 401 kts | 256° |
| 2026-05-07 20:31 | -29.46332 | 166.58548 | 30012 ft | 400 kts | 256° |
| 2026-05-07 20:31 | -29.48152 | 166.52534 | 29995 ft | 400 kts | 256° |
| 2026-05-07 20:32 | -29.49971 | 166.46514 | 29998 ft | 399 kts | 257° |
| 2026-05-07 20:32 | -29.51783 | 166.40502 | 29993 ft | 398 kts | 257° |
| 2026-05-07 20:33 | -29.53590 | 166.34499 | 29993 ft | 397 kts | 257° |
| 2026-05-07 20:33 | -29.55389 | 166.28510 | 29995 ft | 397 kts | 257° |
| 2026-05-07 20:34 | -29.57184 | 166.22521 | 29992 ft | 397 kts | 257° |
| 2026-05-07 20:34 | -29.58979 | 166.16523 | 29986 ft | 397 kts | 257° |
| 2026-05-07 20:35 | -29.60774 | 166.10514 | 29986 ft | 398 kts | 257° |
| 2026-05-07 20:35 | -29.62565 | 166.04506 | 29982 ft | 398 kts | 257° |
| 2026-05-07 20:36 | -29.64355 | 165.98493 | 29993 ft | 397 kts | 257° |
| 2026-05-07 20:36 | -29.66142 | 165.92479 | 29990 ft | 398 kts | 257° |
| 2026-05-07 20:37 | -29.67913 | 165.86504 | 29979 ft | 398 kts | 257° |
| 2026-05-07 20:37 | -29.69694 | 165.80485 | 29982 ft | 397 kts | 257° |
| 2026-05-07 20:38 | -29.71469 | 165.74475 | 29987 ft | 398 kts | 257° |
| 2026-05-07 20:38 | -29.73246 | 165.68449 | 29979 ft | 398 kts | 257° |
| 2026-05-07 20:39 | -29.75021 | 165.62420 | 29981 ft | 398 kts | 257° |
| 2026-05-07 20:39 | -29.76790 | 165.56395 | 29977 ft | 398 kts | 257° |
| 2026-05-07 20:40 | -29.78558 | 165.50367 | 29976 ft | 397 kts | 257° |
| 2026-05-07 20:40 | -29.80322 | 165.44335 | 29976 ft | 397 kts | 257° |
| 2026-05-07 20:41 | -29.82078 | 165.38324 | 29972 ft | 397 kts | 257° |
| 2026-05-07 20:41 | -29.83838 | 165.32287 | 29971 ft | 397 kts | 258° |
| 2026-05-07 20:42 | -29.85594 | 165.26248 | 29969 ft | 398 kts | 258° |
| 2026-05-07 20:42 | -29.87349 | 165.20208 | 29969 ft | 398 kts | 258° |
| 2026-05-07 20:43 | -29.89101 | 165.14163 | 29968 ft | 398 kts | 258° |
| 2026-05-07 20:43 | -29.90850 | 165.08115 | 29974 ft | 398 kts | 258° |
| 2026-05-07 20:44 | -29.92585 | 165.02105 | 29978 ft | 398 kts | 258° |
| 2026-05-07 20:44 | -29.94330 | 164.96051 | 29965 ft | 398 kts | 258° |
| 2026-05-07 20:45 | -29.96071 | 164.89998 | 29963 ft | 398 kts | 258° |
| 2026-05-07 20:45 | -29.97808 | 164.83945 | 29964 ft | 397 kts | 258° |
| 2026-05-07 20:46 | -29.99541 | 164.77895 | 29969 ft | 397 kts | 258° |
| 2026-05-07 20:46 | -30.01271 | 164.71844 | 29968 ft | 397 kts | 258° |
| 2026-05-07 20:47 | -30.02998 | 164.65793 | 29970 ft | 397 kts | 258° |
| 2026-05-07 20:47 | -30.04721 | 164.59742 | 29998 ft | 397 kts | 259° |
| 2026-05-07 20:48 | -30.06445 | 164.53677 | 29974 ft | 397 kts | 259° |
| 2026-05-07 20:48 | -30.08165 | 164.47614 | 29969 ft | 397 kts | 259° |
| 2026-05-07 20:49 | -30.09881 | 164.41554 | 29969 ft | 397 kts | 259° |
| 2026-05-07 20:49 | -30.11595 | 164.35489 | 29984 ft | 397 kts | 259° |
| 2026-05-07 20:50 | -30.13303 | 164.29436 | 29976 ft | 396 kts | 260° |
| 2026-05-07 20:50 | -30.15002 | 164.23399 | 29973 ft | 395 kts | 260° |
| 2026-05-07 20:51 | -30.16410 | 164.18387 | 29976 ft | 394 kts | 260° |
| 2026-05-07 20:51 | -30.18099 | 164.12364 | 29975 ft | 394 kts | 260° |
| 2026-05-07 20:52 | -30.19784 | 164.06344 | 29979 ft | 393 kts | 260° |
| 2026-05-07 20:52 | -30.21464 | 164.00328 | 29985 ft | 393 kts | 260° |
| 2026-05-07 20:53 | -30.23140 | 163.94318 | 29976 ft | 393 kts | 260° |
| 2026-05-07 20:53 | -30.24811 | 163.88315 | 30000 ft | 391 kts | 260° |
| 2026-05-07 20:54 | -30.26468 | 163.82350 | 29978 ft | 388 kts | 260° |
| 2026-05-07 20:54 | -30.28113 | 163.76418 | 29976 ft | 386 kts | 260° |
| 2026-05-07 20:55 | -30.29746 | 163.70510 | 29984 ft | 385 kts | 260° |
| 2026-05-07 20:55 | -30.31373 | 163.64613 | 29994 ft | 384 kts | 260° |
| 2026-05-07 20:56 | -30.32985 | 163.58760 | 29979 ft | 384 kts | 261° |
| 2026-05-07 20:56 | -30.34604 | 163.52874 | 29981 ft | 384 kts | 261° |
| 2026-05-07 20:57 | -30.36219 | 163.46987 | 29985 ft | 384 kts | 261° |
| 2026-05-07 20:57 | -30.37833 | 163.41095 | 29980 ft | 384 kts | 261° |
| 2026-05-07 20:58 | -30.39445 | 163.35195 | 29987 ft | 385 kts | 261° |
| 2026-05-07 20:58 | -30.41058 | 163.29284 | 30006 ft | 385 kts | 260° |
| 2026-05-07 20:59 | -30.42671 | 163.23360 | 30039 ft | 387 kts | 259° |
| 2026-05-07 20:59 | -30.44304 | 163.17347 | 29996 ft | 394 kts | 259° |
| 2026-05-07 21:00 | -30.45949 | 163.11280 | 29982 ft | 395 kts | 259° |
| 2026-05-07 21:00 | -30.47593 | 163.05212 | 29985 ft | 394 kts | 259° |
| 2026-05-07 21:01 | -30.49234 | 162.99146 | 29986 ft | 394 kts | 259° |
| 2026-05-07 21:01 | -30.50928 | 162.93098 | 29978 ft | 395 kts | 258° |
| 2026-05-07 21:02 | -30.52643 | 162.87052 | 29984 ft | 395 kts | 258° |
| 2026-05-07 21:02 | -30.54352 | 162.81002 | 29985 ft | 394 kts | 258° |
| 2026-05-07 21:03 | -30.56051 | 162.74956 | 29985 ft | 394 kts | 258° |
| 2026-05-07 21:03 | -30.57746 | 162.68907 | 29981 ft | 394 kts | 258° |
| 2026-05-07 21:04 | -30.59438 | 162.62856 | 29983 ft | 394 kts | 258° |
| 2026-05-07 21:04 | -30.61114 | 162.56848 | 30013 ft | 395 kts | 258° |
| 2026-05-07 21:05 | -30.62805 | 162.50772 | 29993 ft | 396 kts | 258° |
| 2026-05-07 21:05 | -30.64498 | 162.44676 | 29987 ft | 397 kts | 258° |
| 2026-05-07 21:06 | -30.66184 | 162.38592 | 29991 ft | 398 kts | 258° |
| 2026-05-07 21:06 | -30.67884 | 162.32451 | 29989 ft | 398 kts | 258° |
| 2026-05-07 21:07 | -30.69575 | 162.26328 | 29990 ft | 398 kts | 258° |
| 2026-05-07 21:07 | -30.71264 | 162.20197 | 29996 ft | 399 kts | 258° |
| 2026-05-07 21:08 | -30.72953 | 162.14054 | 29989 ft | 399 kts | 258° |
| 2026-05-07 21:08 | -30.74641 | 162.07904 | 29991 ft | 400 kts | 258° |
| 2026-05-07 21:09 | -30.76328 | 162.01744 | 29991 ft | 400 kts | 258° |
| 2026-05-07 21:09 | -30.78011 | 161.95585 | 29991 ft | 400 kts | 258° |
| 2026-05-07 21:10 | -30.79693 | 161.89418 | 29996 ft | 401 kts | 258° |
| 2026-05-07 21:10 | -30.81376 | 161.83233 | 29993 ft | 402 kts | 258° |
| 2026-05-07 21:11 | -30.83060 | 161.77030 | 29992 ft | 402 kts | 258° |
| 2026-05-07 21:11 | -30.85587 | 161.67704 | 29986 ft | 403 kts | 258° |
| 2026-05-07 21:12 | -30.87259 | 161.61515 | 29987 ft | 404 kts | 258° |
| 2026-05-07 21:12 | -30.88940 | 161.55278 | 29992 ft | 404 kts | 258° |
| 2026-05-07 21:13 | -30.90618 | 161.49044 | 29984 ft | 404 kts | 258° |
| 2026-05-07 21:13 | -30.92292 | 161.42808 | 29987 ft | 403 kts | 258° |
| 2026-05-07 21:14 | -30.93961 | 161.36575 | 29985 ft | 403 kts | 258° |
| 2026-05-07 21:14 | -30.95625 | 161.30352 | 29986 ft | 402 kts | 258° |
| 2026-05-07 21:15 | -30.97286 | 161.24123 | 29997 ft | 403 kts | 258° |
| 2026-05-07 21:15 | -30.98944 | 161.17894 | 29984 ft | 402 kts | 258° |
| 2026-05-07 21:16 | -31.00599 | 161.11664 | 29986 ft | 402 kts | 258° |
| 2026-05-07 21:16 | -31.02248 | 161.05439 | 29988 ft | 402 kts | 258° |
| 2026-05-07 21:17 | -31.03893 | 160.99218 | 29989 ft | 402 kts | 258° |
| 2026-05-07 21:17 | -31.05535 | 160.92994 | 29990 ft | 402 kts | 258° |
| 2026-05-07 21:18 | -31.07175 | 160.86765 | 29995 ft | 402 kts | 258° |
| 2026-05-07 21:18 | -31.08812 | 160.80533 | 29990 ft | 402 kts | 258° |
| 2026-05-07 21:19 | -31.10447 | 160.74296 | 29986 ft | 402 kts | 258° |
| 2026-05-07 21:19 | -31.12080 | 160.68054 | 29986 ft | 402 kts | 258° |
| 2026-05-07 21:20 | -31.13712 | 160.61802 | 29986 ft | 403 kts | 258° |
| 2026-05-07 21:20 | -31.15342 | 160.55543 | 29990 ft | 403 kts | 258° |
| 2026-05-07 21:21 | -31.16968 | 160.49283 | 29989 ft | 403 kts | 258° |
| 2026-05-07 21:21 | -31.18592 | 160.43019 | 29989 ft | 403 kts | 258° |
| 2026-05-07 21:22 | -31.20201 | 160.36803 | 29982 ft | 403 kts | 258° |
| 2026-05-07 21:22 | -31.21817 | 160.30543 | 29989 ft | 402 kts | 258° |
| 2026-05-07 21:23 | -31.23428 | 160.24289 | 29988 ft | 402 kts | 258° |
| 2026-05-07 21:23 | -31.25034 | 160.18036 | 29986 ft | 402 kts | 258° |
| 2026-05-07 21:24 | -31.26638 | 160.11781 | 29984 ft | 402 kts | 258° |
| 2026-05-07 21:24 | -31.28237 | 160.05530 | 29993 ft | 401 kts | 258° |
| 2026-05-07 21:25 | -31.29835 | 159.99272 | 30007 ft | 402 kts | 258° |
| 2026-05-07 21:25 | -31.31432 | 159.93000 | 30001 ft | 403 kts | 258° |
| 2026-05-07 21:26 | -31.33029 | 159.86715 | 29995 ft | 403 kts | 258° |
| 2026-05-07 21:26 | -31.34625 | 159.80423 | 29982 ft | 403 kts | 258° |
| 2026-05-07 21:27 | -31.36218 | 159.74127 | 29990 ft | 403 kts | 258° |
| 2026-05-07 21:27 | -31.37807 | 159.67832 | 29991 ft | 403 kts | 258° |
| 2026-05-07 21:28 | -31.39392 | 159.61537 | 29996 ft | 403 kts | 258° |
| 2026-05-07 21:28 | -31.40973 | 159.55245 | 29985 ft | 403 kts | 258° |
| 2026-05-07 21:29 | -31.42540 | 159.48994 | 29992 ft | 402 kts | 258° |
| 2026-05-07 21:29 | -31.44113 | 159.42707 | 29996 ft | 402 kts | 258° |
| 2026-05-07 21:30 | -31.45681 | 159.36421 | 29989 ft | 403 kts | 257° |
| 2026-05-07 21:30 | -31.47249 | 159.30122 | 29980 ft | 403 kts | 257° |
| 2026-05-07 21:31 | -31.48816 | 159.23814 | 29974 ft | 403 kts | 257° |
| 2026-05-07 21:31 | -31.50380 | 159.17501 | 29965 ft | 404 kts | 257° |
| 2026-05-07 21:32 | -31.51944 | 159.11180 | 29966 ft | 404 kts | 257° |
| 2026-05-07 21:32 | -31.53828 | 159.04964 | 29963 ft | 409 kts | 248° |
| 2026-05-07 21:33 | -31.56420 | 158.99018 | 29961 ft | 410 kts | 248° |
| 2026-05-07 21:33 | -31.58992 | 158.93058 | 29973 ft | 409 kts | 248° |
| 2026-05-07 21:34 | -31.61546 | 158.87092 | 29977 ft | 409 kts | 249° |
| 2026-05-07 21:34 | -31.64090 | 158.81126 | 29985 ft | 409 kts | 249° |
| 2026-05-07 21:35 | -31.66629 | 158.75158 | 29993 ft | 409 kts | 249° |
| 2026-05-07 21:35 | -31.69147 | 158.69230 | 29997 ft | 408 kts | 249° |
| 2026-05-07 21:36 | -31.71677 | 158.63264 | 30000 ft | 408 kts | 249° |
| 2026-05-07 21:36 | -31.74203 | 158.57297 | 30001 ft | 408 kts | 249° |
| 2026-05-07 21:37 | -31.76726 | 158.51327 | 30000 ft | 408 kts | 249° |
| 2026-05-07 21:37 | -31.79247 | 158.45355 | 30006 ft | 408 kts | 249° |
| 2026-05-07 21:38 | -31.81764 | 158.39379 | 30005 ft | 408 kts | 249° |
| 2026-05-07 21:38 | -31.84283 | 158.33391 | 29996 ft | 408 kts | 249° |
| 2026-05-07 21:39 | -31.86794 | 158.27411 | 29999 ft | 408 kts | 249° |
| 2026-05-07 21:39 | -31.89302 | 158.21428 | 29997 ft | 408 kts | 249° |
| 2026-05-07 21:40 | -31.91807 | 158.15444 | 29996 ft | 407 kts | 249° |
| 2026-05-07 21:40 | -31.94307 | 158.09460 | 30002 ft | 407 kts | 249° |
| 2026-05-07 21:41 | -31.96377 | 158.04497 | 30000 ft | 407 kts | 249° |
| 2026-05-07 21:41 | -31.98873 | 157.98504 | 30009 ft | 408 kts | 249° |
| 2026-05-07 21:42 | -32.01369 | 157.92502 | 30008 ft | 408 kts | 249° |
| 2026-05-07 21:42 | -32.03861 | 157.86500 | 29993 ft | 408 kts | 249° |
| 2026-05-07 21:43 | -32.06351 | 157.80493 | 30003 ft | 407 kts | 249° |
| 2026-05-07 21:43 | -32.08835 | 157.74489 | 30004 ft | 407 kts | 249° |
| 2026-05-07 21:44 | -32.11315 | 157.68485 | 30001 ft | 407 kts | 249° |
| 2026-05-07 21:44 | -32.13790 | 157.62483 | 30009 ft | 407 kts | 249° |
| 2026-05-07 21:45 | -32.16263 | 157.56477 | 30024 ft | 407 kts | 249° |
| 2026-05-07 21:45 | -32.18734 | 157.50462 | 30013 ft | 407 kts | 249° |
| 2026-05-07 21:46 | -32.21187 | 157.44485 | 30006 ft | 407 kts | 249° |
| 2026-05-07 21:46 | -32.23649 | 157.38474 | 30004 ft | 406 kts | 249° |
| 2026-05-07 21:47 | -32.26106 | 157.32465 | 30010 ft | 406 kts | 249° |
| 2026-05-07 21:47 | -32.28559 | 157.26456 | 30016 ft | 406 kts | 250° |
| 2026-05-07 21:48 | -32.31007 | 157.20448 | 29997 ft | 406 kts | 249° |
| 2026-05-07 21:48 | -32.33449 | 157.14445 | 30049 ft | 405 kts | 250° |
| 2026-05-07 21:49 | -32.35891 | 157.08431 | 30021 ft | 405 kts | 250° |
| 2026-05-07 21:49 | -32.38329 | 157.02418 | 30011 ft | 405 kts | 250° |
| 2026-05-07 21:50 | -32.40760 | 156.96412 | 30015 ft | 404 kts | 250° |
| 2026-05-07 21:50 | -32.43186 | 156.90409 | 30014 ft | 404 kts | 250° |
| 2026-05-07 21:51 | -32.45590 | 156.84447 | 30012 ft | 404 kts | 250° |
| 2026-05-07 21:51 | -32.48006 | 156.78448 | 30014 ft | 404 kts | 250° |
| 2026-05-07 21:52 | -32.50419 | 156.72442 | 30052 ft | 404 kts | 250° |
| 2026-05-07 21:52 | -32.52833 | 156.66426 | 30023 ft | 404 kts | 250° |
| 2026-05-07 21:53 | -32.55244 | 156.60410 | 30022 ft | 404 kts | 250° |
| 2026-05-07 21:53 | -32.57648 | 156.54398 | 30006 ft | 403 kts | 250° |
| 2026-05-07 21:54 | -32.60046 | 156.48392 | 30019 ft | 403 kts | 250° |
| 2026-05-07 21:54 | -32.62439 | 156.42387 | 30019 ft | 403 kts | 250° |
| 2026-05-07 21:55 | -32.64829 | 156.36381 | 30020 ft | 403 kts | 250° |
| 2026-05-07 21:55 | -32.67216 | 156.30369 | 30054 ft | 403 kts | 250° |
| 2026-05-07 21:56 | -32.69602 | 156.24350 | 30002 ft | 403 kts | 250° |
| 2026-05-07 21:56 | -32.71982 | 156.18339 | 30011 ft | 402 kts | 250° |
| 2026-05-07 21:57 | -32.74352 | 156.12340 | 30018 ft | 401 kts | 250° |
| 2026-05-07 21:57 | -32.76716 | 156.06346 | 30020 ft | 400 kts | 250° |
| 2026-05-07 21:58 | -32.79074 | 156.00355 | 30016 ft | 400 kts | 250° |
| 2026-05-07 21:58 | -32.81412 | 155.94406 | 30015 ft | 400 kts | 250° |
| 2026-05-07 21:59 | -32.83760 | 155.88416 | 30024 ft | 400 kts | 251° |
| 2026-05-07 21:59 | -32.86101 | 155.82421 | 30020 ft | 399 kts | 251° |
| 2026-05-07 22:00 | -32.88443 | 155.76430 | 30018 ft | 399 kts | 251° |
| 2026-05-07 22:00 | -32.90777 | 155.70443 | 30018 ft | 399 kts | 251° |
| 2026-05-07 22:01 | -32.93100 | 155.64476 | 30017 ft | 398 kts | 251° |
| 2026-05-07 22:01 | -32.95430 | 155.58490 | 30016 ft | 398 kts | 251° |
| 2026-05-07 22:02 | -32.97762 | 155.52508 | 30014 ft | 398 kts | 251° |
| 2026-05-07 22:02 | -33.00087 | 155.46514 | 30035 ft | 399 kts | 251° |
| 2026-05-07 22:03 | -33.02392 | 155.40555 | 30018 ft | 398 kts | 251° |
| 2026-05-07 22:03 | -33.04706 | 155.34564 | 30031 ft | 397 kts | 251° |
| 2026-05-07 22:04 | -33.07012 | 155.28583 | 30022 ft | 397 kts | 251° |
| 2026-05-07 22:04 | -33.09310 | 155.22610 | 30029 ft | 396 kts | 251° |
| 2026-05-07 22:05 | -33.11602 | 155.16643 | 30030 ft | 396 kts | 251° |
| 2026-05-07 22:05 | -33.13891 | 155.10675 | 30029 ft | 395 kts | 251° |
| 2026-05-07 22:06 | -33.16175 | 155.04709 | 30020 ft | 395 kts | 251° |
| 2026-05-07 22:06 | -33.18461 | 154.98759 | 29999 ft | 394 kts | 251° |
| 2026-05-07 22:07 | -33.20739 | 154.92830 | 30010 ft | 392 kts | 251° |
| 2026-05-07 22:07 | -33.23007 | 154.86916 | 30019 ft | 391 kts | 251° |
| 2026-05-07 22:08 | -33.25270 | 154.81001 | 30021 ft | 391 kts | 251° |
| 2026-05-07 22:08 | -33.27529 | 154.75086 | 30021 ft | 391 kts | 251° |
| 2026-05-07 22:09 | -33.29785 | 154.69167 | 30020 ft | 392 kts | 251° |
| 2026-05-07 22:09 | -33.32042 | 154.63235 | 30019 ft | 392 kts | 251° |
| 2026-05-07 22:10 | -33.34282 | 154.57337 | 30022 ft | 392 kts | 251° |
| 2026-05-07 22:10 | -33.36539 | 154.51385 | 30027 ft | 393 kts | 251° |
| 2026-05-07 22:11 | -33.38797 | 154.45422 | 30032 ft | 394 kts | 251° |
| 2026-05-07 22:11 | -33.41053 | 154.39451 | 30031 ft | 394 kts | 251° |
| 2026-05-07 22:12 | -33.43311 | 154.33466 | 30023 ft | 394 kts | 250° |
| 2026-05-07 22:12 | -33.45565 | 154.27479 | 30075 ft | 394 kts | 251° |
| 2026-05-07 22:13 | -33.47814 | 154.21494 | 30045 ft | 393 kts | 251° |
| 2026-05-07 22:13 | -33.50053 | 154.15527 | 30038 ft | 392 kts | 251° |
| 2026-05-07 22:14 | -33.52285 | 154.09568 | 30037 ft | 392 kts | 251° |
| 2026-05-07 22:14 | -33.54511 | 154.03611 | 30024 ft | 391 kts | 250° |
| 2026-05-07 22:15 | -33.56729 | 153.97667 | 30046 ft | 390 kts | 250° |
| 2026-05-07 22:15 | -33.58943 | 153.91723 | 30043 ft | 390 kts | 250° |
| 2026-05-07 22:16 | -33.61153 | 153.85778 | 30058 ft | 390 kts | 251° |
| 2026-05-07 22:16 | -33.63341 | 153.79882 | 30043 ft | 389 kts | 251° |
| 2026-05-07 22:17 | -33.65537 | 153.73957 | 30025 ft | 388 kts | 250° |
| 2026-05-07 22:17 | -33.67724 | 153.68042 | 30036 ft | 387 kts | 250° |
| 2026-05-07 22:18 | -33.70994 | 153.59178 | 30043 ft | 387 kts | 250° |
| 2026-05-07 22:19 | -33.73169 | 153.53270 | 30044 ft | 387 kts | 250° |
| 2026-05-07 22:19 | -33.75343 | 153.47353 | 30087 ft | 387 kts | 250° |
| 2026-05-07 22:20 | -33.77514 | 153.41433 | 30026 ft | 387 kts | 250° |
| 2026-05-07 22:20 | -33.79680 | 153.35520 | 30052 ft | 386 kts | 250° |
| 2026-05-07 22:21 | -33.81840 | 153.29609 | 30044 ft | 386 kts | 250° |
| 2026-05-07 22:21 | -33.83998 | 153.23693 | 30050 ft | 386 kts | 250° |
| 2026-05-07 22:22 | -33.86153 | 153.17777 | 30051 ft | 386 kts | 250° |
| 2026-05-07 22:22 | -33.88305 | 153.11856 | 30023 ft | 386 kts | 250° |
| 2026-05-07 22:23 | -33.90456 | 153.05928 | 30059 ft | 387 kts | 250° |
| 2026-05-07 22:23 | -33.92610 | 152.99979 | 30051 ft | 388 kts | 250° |
| 2026-05-07 22:24 | -33.94766 | 152.94014 | 30054 ft | 389 kts | 250° |
| 2026-05-07 22:24 | -33.96921 | 152.88043 | 30062 ft | 389 kts | 250° |
| 2026-05-07 22:25 | -33.99073 | 152.82067 | 30030 ft | 389 kts | 249° |
| 2026-05-07 22:25 | -34.01234 | 152.76055 | 29323 ft | 395 kts | 249° |
| 2026-05-07 22:25 | -34.02319 | 152.73033 | 28546 ft | 391 kts | 249° |
| 2026-05-07 22:26 | -34.03395 | 152.70035 | 27843 ft | 387 kts | 248° |
| 2026-05-07 22:26 | -34.04439 | 152.67124 | 27219 ft | 382 kts | 248° |
| 2026-05-07 22:26 | -34.05484 | 152.64205 | 26608 ft | 377 kts | 248° |
| 2026-05-07 22:26 | -34.06501 | 152.61315 | 26000 ft | 372 kts | 250° |
| 2026-05-07 22:27 | -34.07180 | 152.58333 | 25405 ft | 367 kts | 258° |
| 2026-05-07 22:27 | -34.07562 | 152.55300 | 24737 ft | 365 kts | 261° |
| 2026-05-07 22:27 | -34.07731 | 152.52227 | 24000 ft | 368 kts | 266° |
| 2026-05-07 22:27 | -34.07551 | 152.49142 | 23341 ft | 368 kts | 271° |
| 2026-05-07 22:28 | -34.07260 | 152.46095 | 22680 ft | 365 kts | 272° |
| 2026-05-07 22:28 | -34.06965 | 152.43074 | 22108 ft | 360 kts | 272° |
| 2026-05-07 22:28 | -34.06674 | 152.40093 | 21541 ft | 355 kts | 272° |
| 2026-05-07 22:28 | -34.06392 | 152.37152 | 20973 ft | 352 kts | 272° |
| 2026-05-07 22:29 | -34.06114 | 152.34236 | 20412 ft | 349 kts | 272° |
| 2026-05-07 22:29 | -34.05840 | 152.31333 | 19859 ft | 348 kts | 272° |
| 2026-05-07 22:29 | -34.05568 | 152.28446 | 19331 ft | 346 kts | 272° |
| 2026-05-07 22:29 | -34.05296 | 152.25557 | 18797 ft | 350 kts | 272° |
| 2026-05-07 22:30 | -34.05018 | 152.22592 | 18227 ft | 360 kts | 272° |
| 2026-05-07 22:30 | -34.04734 | 152.19587 | 17580 ft | 360 kts | 272° |
| 2026-05-07 22:30 | -34.04448 | 152.16605 | 16978 ft | 356 kts | 272° |
| 2026-05-07 22:30 | -34.04170 | 152.13703 | 16443 ft | 351 kts | 272° |
| 2026-05-07 22:31 | -34.03891 | 152.10795 | 15886 ft | 348 kts | 272° |
| 2026-05-07 22:31 | -34.03614 | 152.07912 | 15339 ft | 344 kts | 271° |
| 2026-05-07 22:31 | -34.03337 | 152.05053 | 14670 ft | 345 kts | 272° |
| 2026-05-07 22:31 | -34.03048 | 152.02180 | 14061 ft | 345 kts | 272° |
| 2026-05-07 22:32 | -34.02756 | 151.99320 | 13453 ft | 343 kts | 272° |
| 2026-05-07 22:32 | -34.02465 | 151.96480 | 12890 ft | 340 kts | 272° |
| 2026-05-07 22:32 | -34.02177 | 151.93669 | 12392 ft | 336 kts | 272° |
| 2026-05-07 22:32 | -34.01892 | 151.90886 | 11864 ft | 333 kts | 272° |
| 2026-05-07 22:33 | -34.01705 | 151.89062 | 11528 ft | 331 kts | 272° |
| 2026-05-07 22:33 | -34.01425 | 151.86322 | 11161 ft | 325 kts | 272° |
| 2026-05-07 22:33 | -34.01152 | 151.83680 | 11012 ft | 312 kts | 272° |
| 2026-05-07 22:33 | -34.00888 | 151.81132 | 10882 ft | 300 kts | 272° |
| 2026-05-07 22:34 | -34.00634 | 151.78680 | 10753 ft | 290 kts | 271° |
| 2026-05-07 22:34 | -34.00391 | 151.76312 | 10636 ft | 280 kts | 271° |
| 2026-05-07 22:34 | -34.00155 | 151.74024 | 10521 ft | 270 kts | 271° |
| 2026-05-07 22:34 | -33.99928 | 151.71815 | 10408 ft | 261 kts | 271° |
| 2026-05-07 22:35 | -33.99708 | 151.69676 | 10300 ft | 253 kts | 271° |
| 2026-05-07 22:35 | -33.99495 | 151.67591 | 10116 ft | 248 kts | 271° |
| 2026-05-07 22:35 | -33.99287 | 151.65563 | 9994 ft | 241 kts | 271° |
| 2026-05-07 22:35 | -33.99082 | 151.63565 | 9699 ft | 240 kts | 271° |
| 2026-05-07 22:36 | -33.98877 | 151.61582 | 9415 ft | 238 kts | 271° |
| 2026-05-07 22:36 | -33.98673 | 151.59613 | 9161 ft | 236 kts | 271° |
| 2026-05-07 22:36 | -33.98470 | 151.57661 | 8916 ft | 233 kts | 271° |
| 2026-05-07 22:36 | -33.98269 | 151.55719 | 8743 ft | 236 kts | 271° |
| 2026-05-07 22:37 | -33.98064 | 151.53727 | 8573 ft | 244 kts | 271° |
| 2026-05-07 22:37 | -33.97851 | 151.51676 | 8360 ft | 249 kts | 271° |
| 2026-05-07 22:37 | -33.97634 | 151.49592 | 8141 ft | 253 kts | 271° |
| 2026-05-07 22:37 | -33.97413 | 151.47483 | 7922 ft | 253 kts | 271° |
| 2026-05-07 22:38 | -33.97192 | 151.45393 | 7697 ft | 250 kts | 271° |
| 2026-05-07 22:38 | -33.96975 | 151.43351 | 7582 ft | 239 kts | 271° |
| 2026-05-07 22:38 | -33.96769 | 151.41434 | 7486 ft | 224 kts | 270° |
| 2026-05-07 22:38 | -33.96810 | 151.39660 | 7352 ft | 202 kts | 247° |
| 2026-05-07 22:39 | -33.97449 | 151.38263 | 7259 ft | 183 kts | 229° |
| 2026-05-07 22:39 | -33.98374 | 151.37237 | 6918 ft | 182 kts | 214° |
| 2026-05-07 22:39 | -33.99510 | 151.36634 | 6704 ft | 175 kts | 201° |
| 2026-05-07 22:39 | -34.00626 | 151.36166 | 6530 ft | 166 kts | 202° |
| 2026-05-07 22:40 | -34.01690 | 151.35712 | 6371 ft | 159 kts | 202° |
| 2026-05-07 22:40 | -34.02715 | 151.35277 | 6221 ft | 154 kts | 202° |
| 2026-05-07 22:40 | -34.03718 | 151.34849 | 6110 ft | 152 kts | 203° |
| 2026-05-07 22:40 | -34.04775 | 151.34754 | 5957 ft | 159 kts | 174° |
| 2026-05-07 22:41 | -34.05855 | 151.35046 | 5847 ft | 161 kts | 176° |
| 2026-05-07 22:41 | -34.06976 | 151.35326 | 5721 ft | 166 kts | 175° |
| 2026-05-07 22:41 | -34.08114 | 151.35617 | 5576 ft | 167 kts | 176° |
| 2026-05-07 22:41 | -34.09245 | 151.35911 | 5413 ft | 164 kts | 175° |
| 2026-05-07 22:42 | -34.10347 | 151.36200 | 5276 ft | 160 kts | 176° |
| 2026-05-07 22:42 | -34.11436 | 151.36484 | 5133 ft | 160 kts | 175° |
| 2026-05-07 22:42 | -34.12524 | 151.36769 | 5009 ft | 160 kts | 175° |
| 2026-05-07 22:42 | -34.13613 | 151.37053 | 4866 ft | 160 kts | 175° |
| 2026-05-07 22:43 | -34.14696 | 151.37335 | 4719 ft | 159 kts | 178° |
| 2026-05-07 22:43 | -34.15758 | 151.37151 | 4508 ft | 153 kts | 210° |
| 2026-05-07 22:43 | -34.16538 | 151.36297 | 4328 ft | 154 kts | 237° |
| 2026-05-07 22:43 | -34.16857 | 151.35057 | 4190 ft | 158 kts | 255° |
| 2026-05-07 22:44 | -34.17005 | 151.33756 | 4045 ft | 156 kts | 255° |
| 2026-05-07 22:44 | -34.17156 | 151.32449 | 3889 ft | 158 kts | 254° |
| 2026-05-07 22:44 | -34.17309 | 151.31113 | 3775 ft | 162 kts | 254° |
| 2026-05-07 22:44 | -34.17463 | 151.29750 | 3622 ft | 165 kts | 256° |
| 2026-05-07 22:45 | -34.17614 | 151.28384 | 3475 ft | 164 kts | 258° |
| 2026-05-07 22:45 | -34.17433 | 151.26997 | 3329 ft | 172 kts | 282° |
| 2026-05-07 22:45 | -34.16860 | 151.25701 | 3173 ft | 180 kts | 300° |
| 2026-05-07 22:45 | -34.15944 | 151.24637 | 3005 ft | 186 kts | 320° |
| 2026-05-07 22:46 | -34.14723 | 151.24137 | 2855 ft | 183 kts | 338° |
| 2026-05-07 22:46 | -34.13492 | 151.23746 | 2688 ft | 183 kts | 338° |
| 2026-05-07 22:46 | -34.12275 | 151.23385 | 2526 ft | 175 kts | 336° |
| 2026-05-07 22:46 | -34.11105 | 151.23060 | 2365 ft | 168 kts | 336° |
| 2026-05-07 22:47 | -34.09994 | 151.22763 | 2190 ft | 160 kts | 334° |
| 2026-05-07 22:47 | -34.08906 | 151.22471 | 2102 ft | 160 kts | 335° |
| 2026-05-07 22:47 | -34.07821 | 151.22185 | 2004 ft | 157 kts | 334° |
| 2026-05-07 22:47 | -34.06771 | 151.21911 | 1997 ft | 154 kts | 332° |
| 2026-05-07 22:48 | -34.05711 | 151.21628 | 1881 ft | 160 kts | 333° |
| 2026-05-07 22:48 | -34.04633 | 151.21349 | 1603 ft | 157 kts | 335° |
| 2026-05-07 22:48 | -34.03605 | 151.21086 | 1408 ft | 146 kts | 333° |
| 2026-05-07 22:48 | -34.02625 | 151.20826 | 1193 ft | 142 kts | 336° |
| 2026-05-07 22:49 | -34.01671 | 151.20576 | 988 ft | 144 kts | 335° |
| 2026-05-07 22:49 | -34.00702 | 151.20324 | 820 ft | 142 kts | 340° |
| 2026-05-07 22:49 | -33.99757 | 151.20103 | 634 ft | 135 kts | 343° |
| 2026-05-07 22:49 | -33.98856 | 151.19876 | 426 ft | 128 kts | 341° |
| 2026-05-07 22:50 | -33.97997 | 151.19631 | 265 ft | 129 kts | 342° |
| 2026-05-07 22:50 | -33.97114 | 151.19388 | 66 ft | 133 kts | 344° |
| 2026-05-07 22:50 | -33.96275 | 151.19165 | 29 ft | 107 kts | 348° |
| 2026-05-07 22:50 | -33.95693 | 151.19017 | 26 ft | 64 kts | 345° |
| 2026-05-07 22:51 | -33.95432 | 151.18937 | 23 ft | 27 kts | 338° |
| 2026-05-07 22:51 | -33.95274 | 151.18829 | 27 ft | 23 kts | 321° |
| 2026-05-07 22:51 | -33.95180 | 151.18730 | 28 ft | 17 kts | 316° |
| 2026-05-07 22:51 | -33.95096 | 151.18634 | 29 ft | 17 kts | 301° |
| 2026-05-07 22:52 | -33.95101 | 151.18502 | 29 ft | 16 kts | 257° |
| 2026-05-07 22:52 | -33.95125 | 151.18375 | 29 ft | 15 kts | 258° |
| 2026-05-07 22:52 | -33.95147 | 151.18251 | 29 ft | 16 kts | 258° |
| 2026-05-07 22:52 | -33.95173 | 151.18109 | 29 ft | 19 kts | 257° |
| 2026-05-07 22:53 | -33.95155 | 151.17960 | 29 ft | 20 kts | 333° |
| 2026-05-07 22:53 | -33.95014 | 151.17921 | 29 ft | 21 kts | 348° |
| 2026-05-07 22:53 | -33.94954 | 151.17905 | 29 ft | 2 kts | 348° |
| 2026-05-07 22:53 | -33.94930 | 151.17900 | 29 ft | 5 kts | 348° |
| 2026-05-07 22:54 | -33.94883 | 151.17888 | 29 ft | 8 kts | 349° |
| 2026-05-07 22:54 | -33.94856 | 151.17882 | 29 ft | 2 kts | 348° |
| 2026-05-07 22:54 | -33.94830 | 151.17874 | 29 ft | 7 kts | 345° |
| 2026-05-07 22:54 | -33.94764 | 151.17856 | 29 ft | 14 kts | 347° |
| 2026-05-07 22:55 | -33.94662 | 151.17830 | 29 ft | 15 kts | 348° |
| 2026-05-07 22:55 | -33.94560 | 151.17801 | 29 ft | 15 kts | 349° |
| 2026-05-07 22:55 | -33.94461 | 151.17773 | 29 ft | 14 kts | 343° |
| 2026-05-07 22:55 | -33.94368 | 151.17746 | 29 ft | 14 kts | 348° |
| 2026-05-07 22:56 | -33.94278 | 151.17718 | 29 ft | 13 kts | 345° |
| 2026-05-07 22:56 | -33.94190 | 151.17691 | 28 ft | 13 kts | 345° |
| 2026-05-07 22:56 | -33.94107 | 151.17665 | 27 ft | 12 kts | 347° |
| 2026-05-07 22:56 | -33.94024 | 151.17644 | 27 ft | 12 kts | 347° |
| 2026-05-07 22:57 | -33.93942 | 151.17622 | 28 ft | 13 kts | 347° |
| 2026-05-07 22:57 | -33.93868 | 151.17653 | 28 ft | 14 kts | 74° |
| 2026-05-07 22:57 | -33.93839 | 151.17777 | 29 ft | 17 kts | 73° |
| 2026-05-07 22:57 | -33.93805 | 151.17916 | 29 ft | 17 kts | 77° |
| 2026-05-07 22:58 | -33.93777 | 151.18042 | 29 ft | 13 kts | 58° |
| 2026-05-07 22:58 | -33.93699 | 151.18056 | 29 ft | 12 kts | 349° |
| 2026-05-07 22:58 | -33.93636 | 151.18052 | 29 ft | 6 kts | 4° |
| 2026-05-07 22:58 | -33.93604 | 151.18027 | 29 ft | 6 kts | 282° |
| 2026-05-07 22:59 | -33.93599 | 151.17997 | 29 ft | 2 kts | 283° |
| 2026-05-07 22:59 | -33.93597 | 151.17988 | 29 ft | 0 kts | 281° |
| 2026-05-07 22:59 | -33.93597 | 151.17986 | 29 ft | 0 kts | 281° |